Aviation Digital Data Service (ADDS)

Output produced by METARs form (0856 UTC 24 March 2019)
found at http://www.aviationweather.gov/metar/data/
 
Forecast for: RKTU (JONGJU (KAFB-AR , KR)
Text: TAF RKTU 240500Z 2406/2512 24010KT 9999 SCT030 TN00/2421Z TX15/2506Z
Forecast period: 0600 UTC 24 March 2019 to 1200 UTC 25 March 2019
Forecast type: FROM: standard forecast or significant change
Winds: from the WSW (240 degrees) at 12 MPH (10 knots; 5.1 m/s)
Visibility: 6 or more miles 10+ km)
Ceiling: at least 12,000 feet AGL
Clouds: scattered clouds at 3000 feet AGL
Weather: no significant weather forecast for this period